Time;durP1;ratioP1;P1;durP2;ratioP2;P2;SDS_P1;SDS_P2;PMS_P1;PMS_P2;Temp;Humidity;BMP_temperature;BMP_pressure;BME280_temperature;BME280_humidity;BME280_pressure;Samples;Min_cycle;Max_cycle;Signal;HPM_P1;HPM_P2
2022/02/27 00:02:09;;;;;;;74.05;39.55;;;;;;;3.88;100.00;101049.03;4992731;28;20122;-64
2022/02/27 00:04:34;;;;;;;58.95;36.03;;;;;;;3.53;100.00;100985.56;4992231;28;20029;-64
2022/02/27 00:06:59;;;;;;;55.45;34.78;;;;;;;2.95;100.00;101008.81;4992240;28;20065;-64
2022/02/27 00:09:25;;;;;;;63.20;36.90;;;;;;;3.23;100.00;101025.25;4992286;28;20461;-65
2022/02/27 00:11:50;;;;;;;59.13;38.20;;;;;;;3.23;100.00;101041.16;4992381;28;20062;-65
2022/02/27 00:14:16;;;;;;;57.45;35.92;;;;;;;3.32;100.00;101015.38;4992222;28;20026;-65
2022/02/27 00:16:42;;;;;;;55.95;36.20;;;;;;;3.05;100.00;101010.69;4992376;28;20037;-65
2022/02/27 00:19:07;;;;;;;60.20;37.88;;;;;;;3.31;100.00;101024.56;4992542;28;20040;-65
2022/02/27 00:21:33;;;;;;;58.88;37.05;;;;;;;3.47;100.00;101025.69;4991883;28;20030;-65
2022/02/27 00:23:58;;;;;;;63.78;39.17;;;;;;;2.77;100.00;100990.91;4992100;28;20030;-65
2022/02/27 00:26:23;;;;;;;62.85;38.08;;;;;;;3.00;100.00;100974.59;4991999;28;20405;-65
2022/02/27 00:28:49;;;;;;;65.95;40.25;;;;;;;2.90;100.00;100984.44;4991870;28;20035;-64
2022/02/27 00:31:14;;;;;;;55.67;36.20;;;;;;;3.49;100.00;101024.91;4992208;28;20488;-64
2022/02/27 00:33:40;;;;;;;91.15;46.33;;;;;;;2.93;100.00;100980.31;4991794;28;20527;-65
2022/02/27 00:36:06;;;;;;;84.97;44.20;;;;;;;3.71;100.00;100995.09;4990999;28;20026;-64
2022/02/27 00:38:31;;;;;;;64.97;37.88;;;;;;;3.63;100.00;101004.16;4991736;28;20034;-64
2022/02/27 00:40:57;;;;;;;53.53;35.47;;;;;;;3.76;100.00;100968.34;4991626;28;20413;-65
2022/02/27 00:43:23;;;;;;;72.43;42.78;;;;;;;3.28;100.00;100996.91;4991788;28;20033;-64
2022/02/27 00:45:49;;;;;;;65.53;42.03;;;;;;;3.10;100.00;100940.44;4991754;28;20035;-64
2022/02/27 00:48:14;;;;;;;60.35;38.80;;;;;;;3.14;100.00;100987.41;4991484;28;20041;-64
2022/02/27 00:50:40;;;;;;;58.13;37.35;;;;;;;3.22;100.00;100964.13;4991504;28;20038;-64
2022/02/27 00:53:06;;;;;;;60.30;36.28;;;;;;;3.16;100.00;100965.69;4991383;28;20041;-64
2022/02/27 00:55:32;;;;;;;64.45;38.10;;;;;;;3.17;100.00;101013.41;4990457;28;20030;-65
2022/02/27 00:57:57;;;;;;;54.30;36.20;;;;;;;3.43;100.00;101009.72;4991473;28;20450;-64
2022/02/27 01:02:58;;;;;;;58.53;38.15;;;;;;;2.55;100.00;100949.47;4317177;23;9999991;-64
2022/02/27 01:05:24;;;;;;;60.47;38.00;;;;;;;3.10;100.00;100994.03;5010176;28;20042;-64
2022/02/27 01:07:49;;;;;;;59.10;38.22;;;;;;;2.87;100.00;100941.72;5003286;28;20066;-64
2022/02/27 01:10:15;;;;;;;59.38;36.90;;;;;;;3.32;100.00;100991.09;4991194;28;20488;-64
2022/02/27 01:12:40;;;;;;;59.50;38.55;;;;;;;3.05;100.00;100979.72;4990037;28;20073;-64
2022/02/27 01:15:08;;;;;;;64.30;39.13;;;;;;;3.31;100.00;100983.53;4991266;28;20033;-64
2022/02/27 01:17:33;;;;;;;61.42;38.88;;;;;;;2.86;100.00;100960.09;4991445;28;20116;-65
2022/02/27 01:19:59;;;;;;;59.63;37.95;;;;;;;3.26;100.00;100983.47;4992250;28;20066;-64
2022/02/27 01:22:24;;;;;;;57.00;36.38;;;;;;;3.34;100.00;100976.91;5010741;28;20026;-64
2022/02/27 01:24:50;;;;;;;58.03;35.80;;;;;;;3.62;100.00;100975.69;5010865;28;20026;-64
2022/02/27 01:27:15;;;;;;;59.22;36.60;;;;;;;3.25;100.00;100976.72;5010728;28;20033;-65
2022/02/27 01:29:41;;;;;;;58.53;37.83;;;;;;;2.97;100.00;100936.88;5010347;28;20034;-64
2022/02/27 01:32:06;;;;;;;57.53;37.33;;;;;;;3.09;100.00;100971.44;5010896;28;20026;-65
2022/02/27 01:34:32;;;;;;;66.90;41.67;;;;;;;2.96;100.00;100957.78;5010982;28;20037;-64
2022/02/27 01:36:58;;;;;;;61.28;40.83;;;;;;;3.12;100.00;100979.00;5010582;28;20052;-64
2022/02/27 01:39:25;;;;;;;62.70;40.92;;;;;;;2.99;100.00;100987.97;5009666;28;20400;-64
2022/02/27 01:41:50;;;;;;;64.57;42.15;;;;;;;2.87;100.00;100985.25;4998595;28;20041;-64
2022/02/27 01:44:16;;;;;;;64.72;42.05;;;;;;;2.76;100.00;100908.03;4990817;28;20454;-64
2022/02/27 01:46:57;;;;;;;62.67;41.33;;;;;;;2.93;100.00;100970.25;4992085;28;20404;-64
2022/02/27 01:49:22;;;;;;;61.13;39.08;;;;;;;3.19;100.00;100958.22;4994836;28;20034;-64
2022/02/27 01:51:48;;;;;;;60.28;39.60;;;;;;;2.77;100.00;100959.94;4995009;28;20026;-64
2022/02/27 01:54:13;;;;;;;61.10;39.50;;;;;;;2.54;100.00;100960.31;4994776;28;20468;-64
2022/02/27 01:56:41;;;;;;;60.88;37.90;;;;;;;2.73;100.00;100915.50;4994398;28;20034;-64
2022/02/27 01:59:07;;;;;;;52.70;35.55;;;;;;;2.79;100.00;100913.97;4994881;28;20030;-64
2022/02/27 02:01:32;;;;;;;56.03;36.63;;;;;;;2.83;100.00;100938.31;4994871;28;20364;-64
2022/02/27 02:03:59;;;;;;;66.47;38.25;;;;;;;2.37;100.00;100936.56;4994806;28;20050;-64
2022/02/27 02:06:24;;;;;;;58.42;36.08;;;;;;;2.40;100.00;100943.28;4994988;28;20033;-64
2022/02/27 02:08:50;;;;;;;54.75;34.75;;;;;;;2.35;100.00;100897.22;4994623;28;20030;-64
2022/02/27 02:11:15;;;;;;;46.67;32.13;;;;;;;2.36;100.00;100951.56;4994035;28;20089;-64
2022/02/27 02:13:42;;;;;;;46.05;31.42;;;;;;;2.41;100.00;100952.53;4994327;28;20034;-64
2022/02/27 02:16:08;;;;;;;43.63;29.10;;;;;;;2.42;100.00;100919.94;5002218;28;20038;-64
2022/02/27 02:18:33;;;;;;;43.95;28.90;;;;;;;2.48;100.00;100871.53;5013987;28;20099;-64
2022/02/27 02:20:59;;;;;;;45.92;28.58;;;;;;;2.64;100.00;100946.28;5014010;28;20030;-64
2022/02/27 02:23:24;;;;;;;42.83;28.83;;;;;;;3.05;100.00;100940.38;5014002;28;20558;-64
2022/02/27 02:25:50;;;;;;;45.55;29.42;;;;;;;2.44;100.00;100912.44;5013744;28;20041;-64
2022/02/27 02:28:15;;;;;;;47.92;29.40;;;;;;;2.51;100.00;100944.38;5013432;28;20423;-64
2022/02/27 02:30:41;;;;;;;51.83;32.17;;;;;;;2.59;100.00;100938.66;5013936;28;20030;-64
2022/02/27 02:33:06;;;;;;;56.42;37.88;;;;;;;2.32;100.00;100929.72;5013747;28;20026;-64
2022/02/27 02:35:31;;;;;;;54.47;36.45;;;;;;;2.28;100.00;100933.00;5013686;28;20030;-65
2022/02/27 02:37:57;;;;;;;60.25;39.50;;;;;;;2.84;100.00;100901.47;5013900;28;20112;-64
2022/02/27 02:40:24;;;;;;;62.88;40.78;;;;;;;2.62;100.00;100945.41;5013578;28;20128;-64
2022/02/27 02:42:50;;;;;;;61.10;38.55;;;;;;;2.57;100.00;100950.34;5013408;28;20038;-64
2022/02/27 02:45:16;;;;;;;55.00;37.58;;;;;;;2.47;100.00;100923.41;5012273;28;20026;-64
2022/02/27 02:47:46;;;;;;;58.60;36.83;;;;;;;2.59;100.00;100967.94;5013454;28;20511;-64
2022/02/27 02:50:13;;;;;;;56.30;36.15;;;;;;;2.33;100.00;100962.41;5013475;28;20087;-64
2022/02/27 02:52:39;;;;;;;56.88;35.60;;;;;;;2.11;100.00;100926.78;5013224;28;20029;-64
2022/02/27 02:55:13;;;;;;;55.28;36.92;;;;;;;2.46;100.00;100966.00;5013521;28;20026;-64
2022/02/27 02:57:39;;;;;;;57.40;36.45;;;;;;;2.12;100.00;100924.31;5013337;28;20546;-64
2022/02/27 03:00:08;;;;;;;56.47;36.13;;;;;;;2.56;100.00;100965.34;5011399;28;20159;-64
2022/02/27 03:02:34;;;;;;;52.83;35.42;;;;;;;2.44;100.00;100913.28;5003649;28;20508;-64
2022/02/27 03:04:59;;;;;;;54.28;35.90;;;;;;;2.39;100.00;100944.13;4993462;28;20041;-64
2022/02/27 03:07:25;;;;;;;54.67;35.95;;;;;;;2.36;100.00;100941.53;4993512;28;20022;-64
2022/02/27 03:09:50;;;;;;;57.40;37.03;;;;;;;2.68;100.00;100953.06;4993071;28;20479;-65
2022/02/27 03:12:16;;;;;;;60.95;38.70;;;;;;;2.66;100.00;100957.19;4993406;28;20110;-64
2022/02/27 03:14:42;;;;;;;94.97;60.30;;;;;;;2.59;100.00;100963.75;4993565;28;20455;-64
2022/02/27 03:17:07;;;;;;;114.35;67.55;;;;;;;2.83;100.00;100972.59;4993407;28;20554;-65
2022/02/27 03:19:33;;;;;;;85.00;51.38;;;;;;;2.97;100.00;100969.50;4993111;28;20034;-64
2022/02/27 03:21:58;;;;;;;68.35;44.17;;;;;;;2.62;100.00;100942.91;4993589;28;20030;-64
2022/02/27 03:24:23;;;;;;;58.10;36.50;;;;;;;2.76;100.00;100939.00;4992910;28;20058;-64
2022/02/27 03:26:49;;;;;;;59.92;38.97;;;;;;;3.08;100.00;100960.53;4993144;28;20037;-64
2022/02/27 03:29:14;;;;;;;63.30;39.33;;;;;;;2.79;100.00;100943.22;4993018;28;20076;-64
2022/02/27 03:31:40;;;;;;;57.13;36.00;;;;;;;2.83;100.00;100928.25;4993005;28;20026;-64
2022/02/27 03:34:05;;;;;;;54.78;34.20;;;;;;;2.11;100.00;100909.25;4992860;28;20030;-63
2022/02/27 03:36:30;;;;;;;52.65;32.83;;;;;;;2.77;100.00;100932.31;4992847;28;20492;-64
2022/02/27 03:38:56;;;;;;;50.97;31.60;;;;;;;2.37;100.00;100906.47;4992517;28;20027;-64
2022/02/27 03:41:21;;;;;;;49.85;31.30;;;;;;;3.03;100.00;100952.03;4991262;28;20062;-64
2022/02/27 03:43:47;;;;;;;43.15;29.73;;;;;;;2.32;100.00;100872.91;4993098;28;20062;-64
2022/02/27 03:46:12;;;;;;;47.10;30.90;;;;;;;2.56;100.00;100943.63;4992816;28;20027;-64
2022/02/27 03:48:38;;;;;;;44.13;29.65;;;;;;;2.90;100.00;100929.19;4992523;28;20042;-64
2022/02/27 03:51:03;;;;;;;46.67;28.58;;;;;;;3.17;100.00;100965.69;4992469;28;20038;-68
2022/02/27 03:53:29;;;;;;;45.22;27.92;;;;;;;3.17;100.00;100963.19;4992533;28;20117;-64
2022/02/27 03:55:55;;;;;;;45.55;26.70;;;;;;;3.11;100.00;100934.63;4992730;28;20062;-64
2022/02/27 03:58:20;;;;;;;40.35;24.27;;;;;;;2.90;100.00;100949.28;4992455;28;20030;-64
2022/02/27 04:00:46;;;;;;;39.08;23.75;;;;;;;3.21;100.00;100921.41;4992485;28;20456;-64
2022/02/27 04:03:12;;;;;;;35.03;23.55;;;;;;;3.36;100.00;100952.66;4992127;28;20049;-64
2022/02/27 04:05:37;;;;;;;36.70;23.88;;;;;;;2.84;100.00;100934.97;4992121;28;20169;-64
2022/02/27 04:08:03;;;;;;;39.78;25.88;;;;;;;3.21;100.00;100951.56;4992405;28;20534;-64
2022/02/27 04:10:29;;;;;;;49.65;32.03;;;;;;;3.25;100.00;100938.19;4991512;28;20061;-64
2022/02/27 04:12:55;;;;;;;51.40;33.70;;;;;;;3.40;100.00;100971.13;4992219;28;20034;-64
2022/02/27 04:15:20;;;;;;;55.03;33.95;;;;;;;3.54;100.00;100957.13;4992472;28;20040;-64
2022/02/27 04:17:46;;;;;;;48.85;31.95;;;;;;;3.86;100.00;100955.97;4992134;28;20415;-64
2022/02/27 04:20:12;;;;;;;51.55;31.77;;;;;;;3.51;100.00;100937.81;4991788;28;20108;-64
2022/02/27 04:22:37;;;;;;;45.42;29.52;;;;;;;3.47;100.00;100931.03;4992059;28;20031;-64
2022/02/27 04:25:04;;;;;;;47.88;31.08;;;;;;;3.17;100.00;100945.59;4992256;28;20417;-64
2022/02/27 04:27:29;;;;;;;44.05;29.35;;;;;;;3.73;100.00;100983.38;4991951;28;20071;-64
2022/02/27 04:29:55;;;;;;;45.90;28.58;;;;;;;3.58;100.00;100938.75;4990423;28;20404;-64
2022/02/27 04:32:20;;;;;;;38.45;26.90;;;;;;;3.13;100.00;100933.81;4991849;28;20034;-64
2022/02/27 04:34:46;;;;;;;43.40;29.60;;;;;;;2.94;100.00;100939.34;4991572;28;20030;-64
2022/02/27 04:37:12;;;;;;;43.67;27.67;;;;;;;3.17;100.00;100973.22;4991959;28;20030;-64
2022/02/27 04:39:37;;;;;;;47.60;31.42;;;;;;;3.28;100.00;100971.78;4991531;28;20037;-64
2022/02/27 04:42:03;;;;;;;48.15;31.27;;;;;;;3.07;100.00;100941.22;4991999;28;20463;-64
2022/02/27 04:44:29;;;;;;;51.15;33.13;;;;;;;3.16;100.00;100941.41;4991840;28;20030;-64
2022/02/27 04:46:55;;;;;;;54.65;31.75;;;;;;;3.90;100.00;100982.81;4991795;28;20117;-64
2022/02/27 04:49:20;;;;;;;58.53;36.70;;;;;;;3.91;100.00;100994.59;4991457;28;20030;-64
2022/02/27 04:51:45;;;;;;;74.30;44.97;;;;;;;3.69;100.00;100985.00;4991393;28;20416;-64
2022/02/27 04:54:11;;;;;;;74.22;45.42;;;;;;;3.45;100.00;100987.97;4991248;28;20061;-64
2022/02/27 04:56:36;;;;;;;115.03;81.90;;;;;;;3.78;100.00;100985.16;4991417;28;20504;-64
2022/02/27 04:59:02;;;;;;;76.43;49.53;;;;;;;3.90;100.00;100997.91;4990309;28;20057;-64
2022/02/27 05:01:27;;;;;;;62.35;41.63;;;;;;;3.76;100.00;100991.00;4991458;28;20084;-64
2022/02/27 05:03:53;;;;;;;71.53;46.78;;;;;;;3.56;100.00;100949.59;4991180;28;20043;-64
2022/02/27 05:06:18;;;;;;;56.40;38.30;;;;;;;3.89;100.00;100991.19;4991283;28;20065;-64
2022/02/27 05:08:43;;;;;;;56.97;37.47;;;;;;;3.54;100.00;100945.38;4990997;28;20054;-64
2022/02/27 05:11:09;;;;;;;51.65;34.67;;;;;;;4.12;100.00;101011.69;4991666;28;20027;-64
2022/02/27 05:13:34;;;;;;;55.10;36.58;;;;;;;3.57;100.00;100947.09;4991558;28;20034;-64
2022/02/27 05:16:00;;;;;;;59.15;39.25;;;;;;;4.12;100.00;100977.28;4991320;28;20034;-64
2022/02/27 05:18:25;;;;;;;58.88;42.25;;;;;;;3.75;100.00;101015.28;4990014;28;20050;-64
2022/02/27 05:20:50;;;;;;;54.92;39.50;;;;;;;4.03;100.00;101014.03;4991055;28;20093;-64
2022/02/27 05:23:16;;;;;;;63.03;42.40;;;;;;;4.27;100.00;101012.75;4990564;28;20476;-64
2022/02/27 05:25:41;;;;;;;61.35;42.05;;;;;;;4.21;100.00;101029.41;4991195;28;20037;-64
2022/02/27 05:28:07;;;;;;;62.00;46.28;;;;;;;3.87;100.00;100956.78;4991225;28;20042;-64
2022/02/27 05:30:33;;;;;;;69.90;50.38;;;;;;;4.59;100.00;101030.78;4991194;28;20407;-65
2022/02/27 05:32:58;;;;;;;77.28;54.45;;;;;;;3.90;100.00;100961.88;4991170;28;20030;-64
2022/02/27 05:35:24;;;;;;;78.13;53.38;;;;;;;4.37;100.00;101017.06;4991182;28;20030;-64
2022/02/27 05:37:49;;;;;;;79.15;57.70;;;;;;;4.38;100.00;100993.59;4990842;28;20030;-65
2022/02/27 05:40:15;;;;;;;83.10;58.33;;;;;;;4.60;100.00;100978.75;4991084;28;20471;-65
2022/02/27 05:42:40;;;;;;;86.55;61.40;;;;;;;4.28;100.00;100980.84;4991332;28;20038;-64
2022/02/27 05:45:06;;;;;;;81.78;57.85;;;;;;;4.57;100.00;101013.97;4990962;28;20032;-64
2022/02/27 05:47:32;;;;;;;83.75;57.40;;;;;;;4.58;100.00;101021.53;4990894;28;20136;-64
2022/02/27 05:49:58;;;;;;;85.25;57.25;;;;;;;4.27;100.00;100979.16;5005950;28;20081;-64
2022/02/27 05:52:23;;;;;;;93.28;63.17;;;;;;;4.07;100.00;100942.81;4990723;28;20030;-64
2022/02/27 05:54:49;;;;;;;79.32;56.05;;;;;;;4.70;100.00;101011.63;4990825;28;20424;-64
2022/02/27 05:57:14;;;;;;;73.90;51.60;;;;;;;4.93;100.00;101004.34;4990974;28;20041;-64
2022/02/27 05:59:40;;;;;;;54.95;39.92;;;;;;;5.23;100.00;100990.38;4991084;28;20467;-64
2022/02/27 06:02:06;;;;;;;51.85;35.33;;;;;;;5.08;100.00;100980.16;4990797;28;20133;-64
2022/02/27 06:04:31;;;;;;;49.92;33.33;;;;;;;5.43;100.00;100985.53;4990820;28;20054;-64
2022/02/27 06:06:57;;;;;;;36.50;27.67;;;;;;;5.47;100.00;100956.97;4990540;28;20034;-64
2022/02/27 06:09:22;;;;;;;33.17;22.58;;;;;;;5.81;100.00;100994.25;4989264;28;20034;-64
2022/02/27 06:11:48;;;;;;;33.63;23.35;;;;;;;5.88;100.00;100987.63;4989647;28;20588;-64
2022/02/27 06:14:14;;;;;;;31.55;23.00;;;;;;;5.88;100.00;100972.47;4990791;28;20508;-65
2022/02/27 06:16:39;;;;;;;29.30;22.08;;;;;;;5.79;100.00;100944.63;4990792;28;20054;-64
2022/02/27 06:19:05;;;;;;;32.33;23.58;;;;;;;5.97;100.00;100967.47;4990695;28;20129;-64
2022/02/27 06:21:30;;;;;;;32.10;23.58;;;;;;;5.94;100.00;100977.56;4990558;28;20109;-64
2022/02/27 06:23:56;;;;;;;31.20;23.05;;;;;;;6.01;100.00;100990.22;4990508;28;20134;-64
2022/02/27 06:26:21;;;;;;;29.45;22.10;;;;;;;5.84;100.00;100946.34;4990775;28;20026;-64
2022/02/27 06:28:47;;;;;;;27.10;20.88;;;;;;;6.02;100.00;100993.59;4990609;28;20041;-64
2022/02/27 06:31:13;;;;;;;32.75;23.40;;;;;;;5.82;100.00;100937.09;4990788;28;20034;-64
2022/02/27 06:33:38;;;;;;;29.30;22.15;;;;;;;5.99;100.00;100968.34;4991540;28;20113;-64
2022/02/27 06:36:04;;;;;;;29.38;22.17;;;;;;;6.05;100.00;100981.00;4993981;28;20548;-64
2022/02/27 06:38:29;;;;;;;29.17;21.95;;;;;;;6.11;100.00;100974.31;4994271;28;20042;-65
2022/02/27 06:40:55;;;;;;;28.38;21.50;;;;;;;5.94;100.00;100935.50;4994165;28;20030;-64
2022/02/27 06:43:20;;;;;;;28.30;21.08;;;;;;;6.08;100.00;100949.03;4994114;28;20031;-65
2022/02/27 06:45:46;;;;;;;26.95;20.67;;;;;;;5.80;100.00;100896.69;4993923;28;20121;-64
2022/02/27 06:48:11;;;;;;;27.65;20.35;;;;;;;6.14;100.00;100970.94;4993848;28;20038;-64
2022/02/27 06:50:37;;;;;;;26.20;20.25;;;;;;;5.97;100.00;100924.59;4993679;28;20153;-64
2022/02/27 06:53:02;;;;;;;26.33;20.70;;;;;;;6.26;100.00;100950.81;4991999;28;20034;-64
2022/02/27 06:55:28;;;;;;;27.25;21.02;;;;;;;6.21;100.00;100921.34;4993824;28;20121;-64
2022/02/27 06:57:54;;;;;;;30.83;22.77;;;;;;;6.20;100.00;100932.28;4993846;28;20081;-64
2022/02/27 07:00:20;;;;;;;28.95;20.38;;;;;;;5.97;100.00;100886.72;4993368;28;20038;-64
2022/02/27 07:02:46;;;;;;;28.92;20.10;;;;;;;6.38;100.00;100947.53;4993785;28;20057;-64
2022/02/27 07:05:12;;;;;;;27.90;20.58;;;;;;;6.52;100.00;100945.88;4993601;28;20037;-64
2022/02/27 07:07:37;;;;;;;25.67;18.55;;;;;;;6.41;100.00;100939.97;4992435;28;20034;-64
2022/02/27 07:10:05;;;;;;;24.80;19.17;;;;;;;6.07;100.00;100864.06;4993596;28;20042;-64
2022/02/27 07:12:34;;;;;;;23.88;18.80;;;;;;;6.34;100.00;100903.72;4992364;28;20035;-64
2022/02/27 07:15:00;;;;;;;26.65;20.35;;;;;;;6.60;100.00;100917.28;4992053;28;20030;-64
2022/02/27 07:17:26;;;;;;;27.85;20.67;;;;;;;6.47;100.00;100887.81;4993388;28;20034;-64
2022/02/27 07:19:52;;;;;;;25.35;19.55;;;;;;;6.49;100.00;100877.69;4993403;28;20088;-64
2022/02/27 07:22:19;;;;;;;27.75;20.73;;;;;;;6.87;100.00;100917.34;4993376;28;20408;-64
2022/02/27 07:24:44;;;;;;;20.63;16.17;;;;;;;6.77;100.00;100899.66;4993541;28;20026;-64
2022/02/27 07:27:10;;;;;;;20.20;16.50;;;;;;;6.55;100.00;100848.25;4993114;28;20237;-64
2022/02/27 07:29:35;;;;;;;22.65;15.25;;;;;;;6.69;100.00;100873.53;4993204;28;20034;-64
2022/02/27 07:32:01;;;;;;;19.70;15.80;;;;;;;7.00;100.00;100926.66;4993176;28;20035;-64
2022/02/27 07:34:27;;;;;;;19.40;14.23;;;;;;;6.62;100.00;100864.25;4993115;28;20527;-64
2022/02/27 07:36:54;;;;;;;18.40;14.77;;;;;;;7.18;100.00;100932.59;4993075;28;20192;-64
2022/02/27 07:39:21;;;;;;;20.05;14.75;;;;;;;6.96;100.00;100912.34;4993259;28;20117;-64
2022/02/27 07:41:46;;;;;;;18.73;14.48;;;;;;;7.17;100.00;100946.91;4993085;28;20112;-65
2022/02/27 07:44:12;;;;;;;17.40;14.07;;;;;;;7.05;100.00;100936.81;4992456;28;20109;-63
2022/02/27 07:46:38;;;;;;;17.60;13.80;;;;;;;6.93;100.00;100912.31;4992790;28;20486;-64
2022/02/27 07:49:04;;;;;;;20.08;13.95;;;;;;;6.87;100.00;100912.31;4992573;28;20034;-64
2022/02/27 07:51:30;;;;;;;21.38;14.98;;;;;;;6.97;100.00;100929.19;4992654;28;20036;-64
2022/02/27 07:53:55;;;;;;;20.40;15.15;;;;;;;6.75;100.00;100892.09;4993096;28;20026;-64
2022/02/27 07:56:21;;;;;;;23.30;14.80;;;;;;;6.97;100.00;100949.41;4992867;28;20031;-64
2022/02/27 07:58:46;;;;;;;22.10;14.85;;;;;;;7.00;100.00;100954.47;4992454;28;20030;-64
2022/02/27 08:01:11;;;;;;;21.33;15.25;;;;;;;6.84;100.00;100932.53;4992457;28;20030;-64
2022/02/27 08:03:37;;;;;;;22.73;15.25;;;;;;;6.98;100.00;100963.75;4991938;28;20082;-64
2022/02/27 08:06:02;;;;;;;25.20;17.08;;;;;;;6.92;100.00;100940.97;4992096;28;20089;-64
2022/02/27 08:08:28;;;;;;;19.27;14.50;;;;;;;7.03;100.00;100935.97;4992415;28;20037;-65
2022/02/27 08:10:53;;;;;;;20.65;14.07;;;;;;;7.03;100.00;100944.34;4992624;28;20108;-67
2022/02/27 08:13:19;;;;;;;21.23;14.40;;;;;;;6.70;100.00;100860.91;4992241;28;20033;-66
2022/02/27 08:15:44;;;;;;;19.30;13.45;;;;;;;6.89;100.00;100892.94;4992258;28;20026;-66
2022/02/27 08:18:10;;;;;;;21.23;13.60;;;;;;;7.09;100.00;100917.41;4992146;28;20034;-66
2022/02/27 08:20:35;;;;;;;18.52;13.35;;;;;;;7.09;100.00;100928.34;4992019;28;20044;-66
2022/02/27 08:23:01;;;;;;;18.80;12.50;;;;;;;7.11;100.00;100933.44;4992340;28;20030;-65
2022/02/27 08:25:26;;;;;;;18.33;13.25;;;;;;;7.11;100.00;100930.91;4992267;28;20109;-67
2022/02/27 08:27:52;;;;;;;19.00;13.88;;;;;;;7.11;100.00;100926.66;4991779;28;20038;-64
2022/02/27 08:30:17;;;;;;;21.77;14.77;;;;;;;6.94;100.00;100890.44;4990720;28;20030;-65
2022/02/27 08:32:43;;;;;;;19.98;13.85;;;;;;;7.13;100.00;100929.22;4999023;28;20049;-66
2022/02/27 08:35:09;;;;;;;20.02;12.77;;;;;;;6.99;100.00;100901.41;5011007;28;20111;-64
2022/02/27 08:37:34;;;;;;;19.48;13.75;;;;;;;7.19;100.00;100919.13;5011577;28;21452;-65
2022/02/27 08:40:00;;;;;;;21.15;14.18;;;;;;;7.17;100.00;100918.28;5011454;28;20052;-65
2022/02/27 08:42:30;;;;;;;23.15;14.82;;;;;;;6.98;100.00;100874.41;5011045;28;20056;-65
2022/02/27 08:44:55;;;;;;;20.58;14.40;;;;;;;7.22;100.00;100919.09;5011211;28;20026;-65
2022/02/27 08:47:21;;;;;;;21.67;15.18;;;;;;;7.19;100.00;100901.41;5011357;28;20113;-65
2022/02/27 08:49:47;;;;;;;20.42;13.68;;;;;;;7.16;100.00;100898.88;5010719;28;20076;-65
2022/02/27 08:52:13;;;;;;;21.58;15.35;;;;;;;7.03;100.00;100860.13;5011039;28;20034;-65
2022/02/27 08:54:38;;;;;;;23.70;15.20;;;;;;;7.16;100.00;100871.91;5011118;28;20038;-64
2022/02/27 08:57:05;;;;;;;21.13;15.38;;;;;;;7.11;100.00;100857.59;5010335;28;20529;-64
2022/02/27 08:59:30;;;;;;;21.30;14.52;;;;;;;7.29;100.00;100893.81;5011222;28;20500;-64
2022/02/27 09:01:56;;;;;;;18.52;13.20;;;;;;;7.38;100.00;100908.16;5010900;28;20104;-63
2022/02/27 09:04:21;;;;;;;25.17;14.57;;;;;;;7.38;100.00;100895.50;5010507;28;20056;-64
2022/02/27 09:06:47;;;;;;;19.02;13.65;;;;;;;7.22;100.00;100871.06;5010755;28;20560;-63
2022/02/27 09:09:12;;;;;;;22.58;14.55;;;;;;;7.16;100.00;100864.31;5010879;28;20034;-64
2022/02/27 09:11:38;;;;;;;25.02;15.68;;;;;;;7.18;100.00;100871.91;5010942;28;20026;-63
2022/02/27 09:14:03;;;;;;;25.13;15.77;;;;;;;7.32;100.00;100903.94;5010842;28;20459;-63
2022/02/27 09:16:29;;;;;;;25.90;15.73;;;;;;;7.28;100.00;100883.69;5010731;28;20479;-64
2022/02/27 09:18:54;;;;;;;24.10;15.45;;;;;;;7.05;100.00;100860.13;5010717;28;20029;-64
2022/02/27 09:21:19;;;;;;;21.88;14.82;;;;;;;6.96;100.00;100871.06;5011119;28;20112;-66
2022/02/27 09:23:45;;;;;;;22.48;14.40;;;;;;;7.10;100.00;100897.19;5010685;28;20476;-65
2022/02/27 09:26:10;;;;;;;26.20;17.02;;;;;;;7.15;100.00;100894.66;5010726;28;20026;-66
2022/02/27 09:28:36;;;;;;;28.83;19.58;;;;;;;7.13;100.00;100886.25;5010370;28;20034;-67
2022/02/27 09:31:01;;;;;;;24.63;16.73;;;;;;;7.12;100.00;100892.97;5010703;28;20029;-66
2022/02/27 09:33:26;;;;;;;24.23;15.93;;;;;;;7.14;100.00;100886.22;5010343;28;20034;-65
2022/02/27 09:35:53;;;;;;;27.08;16.40;;;;;;;7.19;100.00;100891.31;5010759;28;20022;-65
2022/02/27 09:38:19;;;;;;;20.48;15.15;;;;;;;7.12;100.00;100889.59;5010546;28;20034;-66
2022/02/27 09:40:49;;;;;;;22.02;14.43;;;;;;;6.90;100.00;100856.72;5010581;28;20137;-67
2022/02/27 09:43:18;;;;;;;28.38;17.20;;;;;;;7.14;100.00;100880.31;5010556;28;20062;-67
2022/02/27 09:45:46;;;;;;;25.05;15.60;;;;;;;7.09;100.00;100866.84;5010761;28;20116;-68
2022/02/27 09:48:12;;;;;;;22.88;15.73;;;;;;;7.13;100.00;100882.00;5010593;28;20061;-68
2022/02/27 09:50:40;;;;;;;25.77;18.50;;;;;;;6.94;100.00;100842.41;5010644;28;20057;-69
2022/02/27 09:53:09;;;;;;;21.90;14.40;;;;;;;6.94;100.00;100828.09;5010808;28;20216;-69
2022/02/27 09:55:36;;;;;;;21.27;16.35;;;;;;;6.99;100.00;100815.47;5010433;28;20121;-67
2022/02/27 09:58:01;;;;;;;24.17;15.77;;;;;;;7.25;100.00;100860.97;5010396;28;20065;-68
2022/02/27 10:00:27;;;;;;;22.50;14.68;;;;;;;7.21;100.00;100869.38;5010262;28;20069;-67
2022/02/27 10:03:10;;;;;;;23.20;14.38;;;;;;;7.18;100.00;100849.16;5010456;28;20050;-67
2022/02/27 10:05:38;;;;;;;22.15;15.48;;;;;;;7.02;100.00;100820.50;5010542;28;20065;-68
2022/02/27 10:08:04;;;;;;;25.35;15.25;;;;;;;7.23;100.00;100857.59;5011681;28;20030;-66
2022/02/27 10:10:31;;;;;;;22.40;15.15;;;;;;;7.07;100.00;100828.94;5013734;28;20099;-68
2022/02/27 10:12:57;;;;;;;23.77;16.35;;;;;;;7.10;100.00;100820.50;5013966;28;20415;-66
2022/02/27 10:15:22;;;;;;;22.52;15.00;;;;;;;7.13;100.00;100821.31;5014090;28;20480;-66
2022/02/27 10:17:51;;;;;;;22.70;14.93;;;;;;;7.13;100.00;100806.16;5014153;28;20069;-65
2022/02/27 10:20:22;;;;;;;21.90;15.68;;;;;;;7.26;100.00;100794.34;4998381;28;20069;-67
2022/02/27 10:22:50;;;;;;;21.75;14.02;;;;;;;7.48;100.00;100819.63;4992813;28;20445;-66
2022/02/27 10:25:24;;;;;;;24.05;14.95;;;;;;;7.39;100.00;100831.44;4994268;28;20030;-68
2022/02/27 10:27:56;;;;;;;23.65;15.20;;;;;;;7.41;100.00;100834.78;4994271;28;20720;-65
2022/02/27 10:30:36;;;;;;;22.48;14.43;;;;;;;7.14;100.00;100769.09;4992947;28;20027;-65
2022/02/27 10:33:11;;;;;;;21.98;13.30;;;;;;;7.29;100.00;100779.19;4997233;28;20069;-65
2022/02/27 10:35:42;;;;;;;17.73;11.02;;;;;;;7.46;100.00;100818.78;5007003;28;20034;-65
2022/02/27 10:38:11;;;;;;;23.70;14.65;;;;;;;7.64;100.00;100821.28;5011937;28;20416;-65
2022/02/27 10:40:39;;;;;;;33.17;19.73;;;;;;;7.80;100.00;100809.41;5013720;28;20080;-65
2022/02/27 10:43:07;;;;;;;24.52;14.23;;;;;;;7.61;100.00;100803.56;5013729;28;20040;-66
2022/02/27 10:45:32;;;;;;;23.42;14.52;;;;;;;7.71;100.00;100795.09;5013505;28;20030;-65
2022/02/27 10:48:07;;;;;;;24.95;15.38;;;;;;;7.91;100.00;100802.59;5028466;28;20038;-65
2022/02/27 10:50:34;;;;;;;24.55;16.05;;;;;;;7.97;100.00;100795.00;5011993;28;20069;-66
2022/02/27 10:53:00;;;;;;;25.95;16.27;;;;;;;8.15;100.00;100786.47;5013094;28;20034;-65
2022/02/27 10:55:26;;;;;;;29.63;16.58;;;;;;;7.88;100.00;100759.59;5013582;28;20506;-65
2022/02/27 10:57:53;;;;;;;25.15;15.38;;;;;;;7.75;100.00;100785.78;5013494;28;20029;-66
2022/02/27 11:00:21;;;;;;;26.75;14.93;;;;;;;7.76;100.00;100779.91;5028421;28;20036;-65
2022/02/27 11:02:59;;;;;;;23.00;15.07;;;;;;;7.46;100.00;100712.53;5012977;28;20046;-66
2022/02/27 11:05:30;;;;;;;20.00;13.18;;;;;;;7.06;100.00;100694.94;5013053;28;20034;-69
2022/02/27 11:07:59;;;;;;;21.05;14.30;;;;;;;7.29;100.00;100706.69;5013049;28;20471;-67